Time;durP1;ratioP1;P1;durP2;ratioP2;P2;SDS_P1;SDS_P2;PMS_P1;PMS_P2;Temp;Humidity;BMP_temperature;BMP_pressure;BME280_temperature;BME280_humidity;BME280_pressure;Samples;Min_cycle;Max_cycle;Signal;HPM_P1;HPM_P2
2022/03/16 00:01:14;;;;;;;35.45;19.77;;;;;;;5.82;100.00;99414.41;4390798;32;20056;-73
2022/03/16 00:03:40;;;;;;;34.90;17.73;;;;;;;5.44;100.00;99369.69;4377440;32;20061;-73
2022/03/16 00:06:07;;;;;;;37.60;19.48;;;;;;;5.39;100.00;99366.81;4389534;32;20057;-72
2022/03/16 00:08:33;;;;;;;34.33;19.85;;;;;;;5.79;100.00;99430.84;4376822;32;20345;-73
2022/03/16 00:11:01;;;;;;;41.70;20.80;;;;;;;5.33;100.00;99362.31;4389525;32;20080;-73
2022/03/16 00:13:27;;;;;;;35.10;18.62;;;;;;;5.68;100.00;99412.78;4389884;32;20039;-73
2022/03/16 00:15:53;;;;;;;38.78;19.77;;;;;;;5.36;100.00;99356.53;4388308;32;20031;-72
2022/03/16 00:18:20;;;;;;;38.03;19.80;;;;;;;5.48;100.00;99369.25;4389866;32;20039;-73
2022/03/16 00:20:48;;;;;;;39.75;20.37;;;;;;;5.64;100.00;99398.19;4376639;32;20027;-73
2022/03/16 00:23:15;;;;;;;39.90;20.48;;;;;;;5.37;100.00;99358.16;4390495;32;20068;-73
2022/03/16 00:25:43;;;;;;;33.63;20.02;;;;;;;5.18;100.00;99322.44;4390309;32;20353;-73
2022/03/16 00:28:10;;;;;;;36.58;19.73;;;;;;;5.31;100.00;99348.31;4390134;32;20123;-72
2022/03/16 00:30:37;;;;;;;39.83;19.85;;;;;;;5.60;100.00;99383.59;4389891;32;20436;-73
2022/03/16 00:33:03;;;;;;;44.40;20.48;;;;;;;5.57;100.00;99384.06;4389137;32;20429;-73
2022/03/16 00:35:31;;;;;;;41.70;21.60;;;;;;;5.51;100.00;99379.53;4389411;32;20344;-72
2022/03/16 00:37:57;;;;;;;40.88;21.83;;;;;;;5.28;100.00;99351.41;4388872;32;20051;-73
2022/03/16 00:40:24;;;;;;;42.20;21.42;;;;;;;5.44;100.00;99377.69;4390334;32;20106;-73
2022/03/16 00:42:50;;;;;;;40.90;19.85;;;;;;;5.38;100.00;99386.53;4389906;32;20050;-73
2022/03/16 00:45:17;;;;;;;37.08;20.37;;;;;;;5.40;100.00;99373.78;4389251;32;20038;-73
2022/03/16 00:47:44;;;;;;;32.92;19.12;;;;;;;5.33;100.00;99370.31;4388558;32;20047;-73
2022/03/16 00:50:10;;;;;;;31.58;17.98;;;;;;;5.35;100.00;99372.78;4390720;32;20074;-73
2022/03/16 00:52:38;;;;;;;34.60;17.95;;;;;;;5.20;100.00;99330.25;4375600;32;20188;-72
2022/03/16 00:55:05;;;;;;;37.20;18.25;;;;;;;5.55;100.00;99378.06;4388609;32;20040;-72
2022/03/16 00:57:32;;;;;;;33.17;17.20;;;;;;;5.49;100.00;99360.19;4390585;32;20057;-72
2022/03/16 00:59:58;;;;;;;32.30;16.92;;;;;;;5.49;100.00;99338.84;4388798;32;20065;-72
2022/03/16 01:02:25;;;;;;;30.52;17.98;;;;;;;5.32;100.00;99304.56;4389074;32;20452;-72
2022/03/16 01:04:52;;;;;;;37.28;18.80;;;;;;;5.26;100.00;99308.06;4390251;32;20051;-73
2022/03/16 01:07:18;;;;;;;34.58;18.52;;;;;;;5.45;100.00;99349.12;4389990;32;20031;-72
2022/03/16 01:09:45;;;;;;;34.88;19.00;;;;;;;5.52;100.00;99370.47;4390236;32;20051;-73
2022/03/16 01:12:11;;;;;;;34.90;17.55;;;;;;;4.84;100.00;99264.81;4389463;32;20099;-72
2022/03/16 01:14:38;;;;;;;34.58;17.00;;;;;;;5.24;100.00;99320.81;4376556;32;20012;-72
2022/03/16 01:17:05;;;;;;;26.87;16.00;;;;;;;5.58;100.00;99369.66;4390138;32;20051;-72
2022/03/16 01:19:34;;;;;;;27.55;15.25;;;;;;;5.32;100.00;99317.91;4390490;32;20042;-73
2022/03/16 01:22:03;;;;;;;30.37;16.77;;;;;;;5.63;100.00;99369.81;4390180;32;20100;-72
2022/03/16 01:24:29;;;;;;;31.40;16.15;;;;;;;5.62;100.00;99361.00;4389101;32;20096;-72
2022/03/16 01:26:56;;;;;;;31.80;16.85;;;;;;;5.67;100.00;99363.06;4390014;32;20039;-73
2022/03/16 01:29:24;;;;;;;33.10;17.75;;;;;;;5.64;100.00;99363.47;4386594;32;20019;-73
2022/03/16 01:31:55;;;;;;;29.17;16.75;;;;;;;5.59;100.00;99347.25;4390083;32;20090;-73
2022/03/16 01:34:23;;;;;;;29.52;15.93;;;;;;;5.58;100.00;99350.94;4389288;32;20046;-73
2022/03/16 01:36:50;;;;;;;29.12;16.00;;;;;;;5.52;100.00;99338.41;4389978;32;20034;-72
2022/03/16 01:39:19;;;;;;;28.98;17.17;;;;;;;5.22;100.00;99298.84;4376921;32;20109;-73
2022/03/16 01:41:55;;;;;;;27.48;16.55;;;;;;;5.61;100.00;99350.53;4390079;32;20008;-73
2022/03/16 01:44:44;;;;;;;26.12;14.77;;;;;;;5.60;100.00;99346.19;4388544;32;20053;-73
2022/03/16 01:47:11;;;;;;;25.17;13.85;;;;;;;5.35;100.00;99301.50;4390184;32;20425;-73
2022/03/16 01:49:39;;;;;;;31.08;15.88;;;;;;;5.65;100.00;99341.06;4390054;32;20050;-73
2022/03/16 01:52:07;;;;;;;27.37;15.23;;;;;;;5.32;100.00;99301.91;4389511;32;20109;-73
2022/03/16 01:54:38;;;;;;;23.75;14.23;;;;;;;5.62;100.00;99344.16;4389866;32;20384;-73
2022/03/16 01:57:05;;;;;;;26.17;15.10;;;;;;;5.63;100.00;99340.44;4389591;32;20068;-73
2022/03/16 01:59:31;;;;;;;26.10;14.05;;;;;;;5.36;100.00;99303.12;4389708;32;20068;-73
2022/03/16 02:01:58;;;;;;;23.77;13.98;;;;;;;5.68;100.00;99358.53;4388963;32;20042;-72
2022/03/16 02:04:25;;;;;;;25.95;14.98;;;;;;;5.62;100.00;99349.50;4389608;32;20065;-73
2022/03/16 02:06:51;;;;;;;28.62;15.95;;;;;;;5.64;100.00;99355.44;4387852;32;20051;-73
2022/03/16 02:09:19;;;;;;;24.25;14.57;;;;;;;5.49;100.00;99323.66;4387488;32;20031;-73
2022/03/16 02:11:45;;;;;;;26.73;15.02;;;;;;;5.69;100.00;99350.28;4388366;32;20065;-74
2022/03/16 02:14:18;;;;;;;30.62;14.30;;;;;;;5.77;100.00;99358.06;4388703;32;20039;-73
2022/03/16 02:16:45;;;;;;;24.00;15.05;;;;;;;5.49;100.00;99312.12;4389328;32;20043;-73
2022/03/16 02:19:12;;;;;;;27.92;15.52;;;;;;;5.71;100.00;99352.75;4389434;32;20112;-72
2022/03/16 02:21:42;;;;;;;23.58;14.18;;;;;;;5.70;100.00;99351.94;4374696;32;20392;-72
2022/03/16 02:24:08;;;;;;;26.00;15.50;;;;;;;5.75;100.00;99359.34;4387282;32;20047;-73
2022/03/16 02:26:36;;;;;;;27.73;16.17;;;;;;;5.70;100.00;99359.97;4375745;32;20027;-73
2022/03/16 02:29:03;;;;;;;30.83;15.88;;;;;;;5.58;100.00;99346.41;4389719;32;20080;-73
2022/03/16 02:31:29;;;;;;;28.62;15.25;;;;;;;5.57;100.00;99352.00;4389571;32;20045;-73
2022/03/16 02:33:55;;;;;;;42.20;18.40;;;;;;;5.36;100.00;99329.00;4389585;32;20435;-73
2022/03/16 02:36:22;;;;;;;32.75;16.73;;;;;;;5.47;100.00;99347.06;4388591;32;20043;-72
2022/03/16 02:38:48;;;;;;;29.58;16.83;;;;;;;5.36;100.00;99356.53;4383466;32;20043;-72
2022/03/16 02:41:15;;;;;;;31.67;17.45;;;;;;;5.27;100.00;99347.09;4389127;32;20027;-72
2022/03/16 02:43:41;;;;;;;32.20;17.67;;;;;;;5.30;100.00;99357.38;4389399;32;20235;-72
2022/03/16 02:46:08;;;;;;;30.30;16.85;;;;;;;5.29;100.00;99350.38;4382987;32;20049;-72
2022/03/16 02:48:34;;;;;;;27.52;15.27;;;;;;;5.23;100.00;99353.87;4388543;32;20039;-72
2022/03/16 02:51:01;;;;;;;31.90;17.02;;;;;;;5.20;100.00;99346.28;4389242;32;20104;-72
2022/03/16 02:53:27;;;;;;;26.87;16.35;;;;;;;4.86;100.00;99300.09;4389206;32;20043;-72
2022/03/16 02:55:54;;;;;;;28.23;16.75;;;;;;;5.12;100.00;99346.50;4388419;32;20061;-72
2022/03/16 02:58:20;;;;;;;37.47;19.02;;;;;;;5.09;100.00;99353.09;4365163;32;20372;-72
2022/03/16 03:00:47;;;;;;;30.37;15.48;;;;;;;4.64;100.00;99279.00;4359327;33;20044;-72
2022/03/16 03:03:13;;;;;;;39.58;17.25;;;;;;;4.68;100.00;99285.53;4359290;33;20044;-72
2022/03/16 03:05:40;;;;;;;30.95;18.08;;;;;;;5.12;100.00;99354.50;4357950;33;20053;-72
2022/03/16 03:08:06;;;;;;;31.33;16.45;;;;;;;4.67;100.00;99277.75;4359221;33;20047;-72
2022/03/16 03:10:33;;;;;;;28.52;16.23;;;;;;;5.04;100.00;99337.69;4358712;33;20409;-72
2022/03/16 03:12:59;;;;;;;31.83;15.45;;;;;;;4.80;100.00;99304.41;4357890;33;20060;-72
2022/03/16 03:15:26;;;;;;;32.25;18.15;;;;;;;4.78;100.00;99300.31;4358795;33;20442;-72
2022/03/16 03:17:52;;;;;;;29.63;17.90;;;;;;;5.06;100.00;99346.28;4358756;32;20175;-72
2022/03/16 03:20:19;;;;;;;30.77;17.05;;;;;;;4.74;100.00;99305.25;4362011;32;20024;-72
2022/03/16 03:22:46;;;;;;;31.77;17.58;;;;;;;4.75;100.00;99312.22;4361701;32;20048;-71
2022/03/16 03:25:14;;;;;;;30.73;18.27;;;;;;;4.47;100.00;99256.41;4361312;32;20040;-71
2022/03/16 03:27:41;;;;;;;29.37;17.05;;;;;;;5.06;100.00;99354.31;4360055;32;20032;-71
2022/03/16 03:30:09;;;;;;;27.15;16.80;;;;;;;4.91;100.00;99333.16;4361849;32;20444;-71
2022/03/16 03:32:37;;;;;;;32.35;18.15;;;;;;;5.03;100.00;99357.38;4360965;32;20039;-72
2022/03/16 03:35:04;;;;;;;30.85;17.50;;;;;;;4.76;100.00;99303.19;4361398;32;20043;-71
2022/03/16 03:37:30;;;;;;;30.37;17.67;;;;;;;4.98;100.00;99354.50;4361559;32;20077;-72
2022/03/16 03:39:57;;;;;;;29.60;16.98;;;;;;;5.03;100.00;99368.06;4360112;32;20037;-71
2022/03/16 03:42:23;;;;;;;32.20;16.98;;;;;;;4.97;100.00;99352.03;4361610;32;20365;-72
2022/03/16 03:44:50;;;;;;;30.65;16.67;;;;;;;4.54;100.00;99291.87;4361605;32;20047;-72
2022/03/16 03:47:17;;;;;;;27.67;16.25;;;;;;;5.04;100.00;99364.38;4360648;32;20077;-72
2022/03/16 03:49:43;;;;;;;32.95;16.80;;;;;;;5.01;100.00;99362.09;4361616;32;20069;-72
2022/03/16 03:52:10;;;;;;;32.10;17.52;;;;;;;4.76;100.00;99339.72;4348219;32;20440;-72
2022/03/16 03:54:37;;;;;;;30.45;17.40;;;;;;;4.84;100.00;99368.87;4359909;32;20057;-72
2022/03/16 03:57:04;;;;;;;33.72;18.62;;;;;;;4.60;100.00;99330.28;4360181;32;20032;-72
2022/03/16 03:59:30;;;;;;;38.50;19.17;;;;;;;4.83;100.00;99372.56;4361577;32;20089;-72
2022/03/16 04:01:57;;;;;;;36.30;18.00;;;;;;;4.82;100.00;99386.91;4361468;32;20039;-72
2022/03/16 04:04:23;;;;;;;42.35;21.27;;;;;;;4.64;100.00;99375.00;4361502;32;20059;-72
2022/03/16 04:06:50;;;;;;;37.28;18.23;;;;;;;4.55;100.00;99376.22;4361182;32;20040;-72
2022/03/16 04:09:17;;;;;;;49.60;21.40;;;;;;;4.13;100.00;99331.00;4361446;32;20040;-72
2022/03/16 04:11:43;;;;;;;46.37;24.55;;;;;;;4.05;100.00;99333.00;4359699;32;20048;-71
2022/03/16 04:14:10;;;;;;;50.47;23.50;;;;;;;4.27;100.00;99384.34;4361280;32;20032;-72
2022/03/16 04:16:37;;;;;;;47.50;22.60;;;;;;;4.04;100.00;99358.00;4361258;32;20350;-72
2022/03/16 04:19:04;;;;;;;52.30;24.50;;;;;;;4.02;100.00;99362.69;4360048;32;20487;-72
2022/03/16 04:21:30;;;;;;;45.97;22.45;;;;;;;3.95;100.00;99371.50;4360088;32;20094;-72
2022/03/16 04:23:56;;;;;;;53.45;26.60;;;;;;;3.82;100.00;99355.44;4360329;32;20345;-72
2022/03/16 04:26:23;;;;;;;49.67;25.92;;;;;;;3.61;100.00;99337.72;4360518;32;20434;-72
2022/03/16 04:28:49;;;;;;;49.13;24.63;;;;;;;3.90;100.00;99387.25;4359973;32;20075;-72
2022/03/16 04:31:16;;;;;;;50.70;25.37;;;;;;;3.87;100.00;99400.16;4360255;32;20035;-72
2022/03/16 04:33:42;;;;;;;41.05;20.75;;;;;;;3.44;100.00;99343.34;4360059;32;20047;-72
2022/03/16 04:36:09;;;;;;;53.83;23.55;;;;;;;3.62;100.00;99382.81;4347009;33;20036;-72
2022/03/16 04:38:35;;;;;;;55.00;26.15;;;;;;;3.35;100.00;99343.72;4347349;32;20039;-72
2022/03/16 04:41:02;;;;;;;58.87;30.08;;;;;;;3.62;100.00;99385.47;4360308;32;20077;-72
2022/03/16 04:43:29;;;;;;;60.50;31.85;;;;;;;3.24;100.00;99343.25;4347086;33;20181;-73
2022/03/16 04:45:55;;;;;;;69.90;30.23;;;;;;;3.52;100.00;99392.97;4359564;32;20058;-73
2022/03/16 04:48:22;;;;;;;68.00;28.65;;;;;;;3.56;100.00;99388.91;4358217;32;20097;-72
2022/03/16 04:50:49;;;;;;;63.65;27.58;;;;;;;3.34;100.00;99350.06;4351154;32;20435;-73
2022/03/16 04:53:15;;;;;;;53.45;25.08;;;;;;;3.24;100.00;99353.87;4357418;32;20077;-72
2022/03/16 04:55:42;;;;;;;56.00;28.50;;;;;;;3.52;100.00;99403.62;4345680;33;20068;-72
2022/03/16 04:58:09;;;;;;;64.32;28.70;;;;;;;3.18;100.00;99349.34;4360157;32;20054;-72
2022/03/16 05:00:37;;;;;;;60.30;26.65;;;;;;;3.32;100.00;99370.72;4360549;32;20036;-72
2022/03/16 05:03:05;;;;;;;64.20;32.42;;;;;;;3.55;100.00;99403.22;4360518;32;20077;-72
2022/03/16 05:05:32;;;;;;;63.03;27.80;;;;;;;3.60;100.00;99406.13;4359882;32;20101;-72
2022/03/16 05:07:58;;;;;;;63.38;30.45;;;;;;;3.64;100.00;99415.38;4359378;32;20023;-72
2022/03/16 05:10:24;;;;;;;63.08;26.67;;;;;;;3.33;100.00;99361.72;4358768;32;20430;-72
2022/03/16 05:12:51;;;;;;;67.97;32.00;;;;;;;3.32;100.00;99362.72;4360380;32;20082;-72
2022/03/16 05:15:19;;;;;;;57.70;26.75;;;;;;;3.38;100.00;99369.94;4360366;32;20082;-72
2022/03/16 05:17:46;;;;;;;61.30;29.70;;;;;;;3.36;100.00;99356.00;4360401;32;20043;-72
2022/03/16 05:20:14;;;;;;;56.67;28.38;;;;;;;3.62;100.00;99409.44;4360166;32;20062;-73
2022/03/16 05:22:41;;;;;;;57.08;29.40;;;;;;;3.63;100.00;99411.06;4360323;32;20039;-73
2022/03/16 05:25:10;;;;;;;47.78;22.92;;;;;;;3.61;100.00;99413.09;4360119;32;20442;-72
2022/03/16 05:27:36;;;;;;;63.85;32.33;;;;;;;3.62;100.00;99420.09;4360351;32;20044;-71
2022/03/16 05:30:04;;;;;;;67.47;30.12;;;;;;;3.44;100.00;99401.09;4360265;32;20388;-73
2022/03/16 05:32:31;;;;;;;59.28;25.27;;;;;;;3.56;100.00;99438.69;4347071;32;20201;-73
2022/03/16 05:34:58;;;;;;;55.97;28.60;;;;;;;3.53;100.00;99439.06;4360250;32;20402;-73
2022/03/16 05:37:24;;;;;;;62.55;29.48;;;;;;;3.47;100.00;99438.00;4360130;32;20054;-73
2022/03/16 05:39:52;;;;;;;46.67;21.90;;;;;;;3.52;100.00;99451.53;4360439;32;20174;-74
2022/03/16 05:42:19;;;;;;;72.70;30.98;;;;;;;3.41;100.00;99439.56;4359865;32;20040;-73
2022/03/16 05:44:46;;;;;;;64.68;30.58;;;;;;;3.40;100.00;99437.13;4358473;32;20036;-73
2022/03/16 05:47:12;;;;;;;63.05;29.33;;;;;;;3.13;100.00;99394.34;4346636;32;20069;-73
2022/03/16 05:49:38;;;;;;;58.13;26.58;;;;;;;3.48;100.00;99450.31;4359983;32;20036;-73
2022/03/16 05:52:06;;;;;;;63.70;29.48;;;;;;;3.20;100.00;99411.16;4359794;32;20040;-72
2022/03/16 05:54:32;;;;;;;63.28;28.80;;;;;;;3.53;100.00;99469.19;4358712;32;20061;-73
2022/03/16 05:56:59;;;;;;;64.45;27.30;;;;;;;3.20;100.00;99416.47;4343832;33;20032;-73
2022/03/16 05:59:25;;;;;;;61.42;27.27;;;;;;;3.52;100.00;99467.53;4357014;32;20028;-73
2022/03/16 06:01:52;;;;;;;52.33;26.48;;;;;;;3.30;100.00;99425.97;4359742;32;20091;-73
2022/03/16 06:04:19;;;;;;;49.13;21.15;;;;;;;3.59;100.00;99476.41;4359955;32;20072;-73
2022/03/16 06:06:45;;;;;;;53.10;25.52;;;;;;;3.49;100.00;99467.91;4359824;32;20073;-73
2022/03/16 06:09:11;;;;;;;46.55;22.62;;;;;;;3.59;100.00;99484.38;4359630;32;20083;-73
2022/03/16 06:11:39;;;;;;;56.65;26.67;;;;;;;3.63;100.00;99472.31;4359548;32;20479;-73
2022/03/16 06:14:05;;;;;;;41.35;20.15;;;;;;;3.45;100.00;99445.37;4359933;32;20043;-73
2022/03/16 06:16:32;;;;;;;37.50;16.65;;;;;;;3.76;100.00;99492.88;4358854;32;20424;-73
2022/03/16 06:18:59;;;;;;;35.67;18.33;;;;;;;3.73;100.00;99487.12;4359657;32;20066;-73
2022/03/16 06:21:25;;;;;;;52.75;25.73;;;;;;;3.74;100.00;99491.47;4346184;32;20439;-74
2022/03/16 06:23:52;;;;;;;29.27;14.93;;;;;;;3.75;100.00;99493.94;4359631;32;20086;-74
2022/03/16 06:26:18;;;;;;;45.25;21.92;;;;;;;3.38;100.00;99442.66;4359235;32;20163;-74
2022/03/16 06:28:51;;;;;;;36.30;16.75;;;;;;;3.81;100.00;99502.97;4359886;32;20008;-73
2022/03/16 06:31:17;;;;;;;25.33;11.27;;;;;;;3.73;100.00;99500.44;4357244;32;20052;-73
2022/03/16 06:33:44;;;;;;;40.25;17.23;;;;;;;3.86;100.00;99513.87;4359751;32;20459;-73
2022/03/16 06:36:10;;;;;;;46.72;25.62;;;;;;;3.84;100.00;99513.25;4359349;33;20048;-74
2022/03/16 06:38:37;;;;;;;49.42;23.45;;;;;;;3.96;100.00;99509.03;4345423;33;20058;-74
2022/03/16 06:41:03;;;;;;;47.83;20.17;;;;;;;3.94;100.00;99519.06;4359392;33;20061;-75
2022/03/16 06:43:30;;;;;;;53.22;25.85;;;;;;;3.95;100.00;99520.69;4359629;33;20057;-74
2022/03/16 06:45:56;;;;;;;61.15;28.67;;;;;;;4.06;100.00;99521.19;4359375;33;20347;-74
2022/03/16 06:48:23;;;;;;;53.53;26.10;;;;;;;3.58;100.00;99434.78;4359060;33;20376;-74
2022/03/16 06:50:51;;;;;;;50.58;25.85;;;;;;;4.13;100.00;99519.38;4358475;33;20035;-73
2022/03/16 06:53:17;;;;;;;33.45;18.10;;;;;;;3.96;100.00;99481.56;4360490;32;20039;-73
2022/03/16 06:55:44;;;;;;;49.70;22.77;;;;;;;4.22;100.00;99531.53;4362538;32;20125;-74
2022/03/16 06:58:11;;;;;;;49.10;22.42;;;;;;;4.25;100.00;99530.34;4362172;32;20044;-73
2022/03/16 07:00:37;;;;;;;43.25;22.02;;;;;;;3.98;100.00;99483.00;4362301;32;20418;-74
2022/03/16 07:03:08;;;;;;;60.42;27.42;;;;;;;4.27;100.00;99529.09;4360665;32;20043;-74
2022/03/16 07:05:39;;;;;;;48.85;25.37;;;;;;;4.40;100.00;99523.00;4362295;32;20071;-74
2022/03/16 07:08:11;;;;;;;52.17;26.23;;;;;;;4.39;100.00;99524.06;4362243;32;20102;-74
2022/03/16 07:10:40;;;;;;;54.38;26.58;;;;;;;4.55;100.00;99541.56;4362258;32;20034;-74
2022/03/16 07:13:11;;;;;;;57.00;29.17;;;;;;;4.61;100.00;99547.94;4368593;32;20364;-74
2022/03/16 07:15:43;;;;;;;61.47;28.60;;;;;;;4.72;100.00;99545.53;4377028;32;20444;-74
2022/03/16 07:18:10;;;;;;;39.50;20.62;;;;;;;4.79;100.00;99542.91;4377442;32;20037;-74
2022/03/16 07:20:37;;;;;;;43.90;21.70;;;;;;;4.91;100.00;99543.97;4376808;32;20388;-74
2022/03/16 07:23:12;;;;;;;51.67;26.98;;;;;;;4.65;100.00;99510.00;4376980;32;20035;-74
2022/03/16 07:25:46;;;;;;;50.22;23.87;;;;;;;4.63;100.00;99496.06;4376989;32;20020;-74
2022/03/16 07:28:13;;;;;;;61.37;27.75;;;;;;;4.78;100.00;99524.41;4376907;32;20050;-74
2022/03/16 07:30:41;;;;;;;29.10;16.80;;;;;;;5.15;100.00;99568.47;4377106;32;20047;-74
2022/03/16 07:33:09;;;;;;;48.25;22.67;;;;;;;5.18;100.00;99572.59;4376920;32;20446;-74
2022/03/16 07:35:36;;;;;;;51.30;24.95;;;;;;;5.26;100.00;99575.06;4376659;32;20035;-71
2022/03/16 07:38:03;;;;;;;48.50;21.70;;;;;;;5.31;100.00;99582.47;4376806;32;20035;-70
2022/03/16 07:40:31;;;;;;;46.40;24.35;;;;;;;5.04;100.00;99537.84;4363388;32;20027;-71
2022/03/16 07:42:58;;;;;;;45.10;19.17;;;;;;;5.40;100.00;99587.44;4363129;32;20055;-71
2022/03/16 07:45:31;;;;;;;30.92;16.23;;;;;;;5.32;100.00;99574.25;4376579;32;20053;-71
2022/03/16 07:47:57;;;;;;;33.22;17.48;;;;;;;5.35;100.00;99573.87;4363116;32;20410;-70
2022/03/16 07:50:24;;;;;;;44.50;25.08;;;;;;;5.35;100.00;99589.87;4376464;32;20065;-71
2022/03/16 07:52:53;;;;;;;44.85;20.70;;;;;;;5.09;100.00;99532.72;4376396;32;20043;-70
2022/03/16 07:55:19;;;;;;;46.20;23.50;;;;;;;5.44;100.00;99599.38;4376580;32;20027;-71
2022/03/16 07:57:45;;;;;;;46.90;24.77;;;;;;;5.24;100.00;99545.91;4376412;32;20046;-70
2022/03/16 08:00:13;;;;;;;45.72;23.15;;;;;;;5.68;100.00;99605.16;4375348;32;20078;-70
2022/03/16 08:02:40;;;;;;;51.00;26.15;;;;;;;5.48;100.00;99556.22;4374539;32;20475;-71
2022/03/16 08:05:08;;;;;;;49.63;25.50;;;;;;;5.83;100.00;99608.44;4376312;32;20040;-72
2022/03/16 08:07:36;;;;;;;52.90;24.17;;;;;;;5.89;100.00;99611.31;4376318;32;20409;-71
2022/03/16 08:10:03;;;;;;;42.15;18.73;;;;;;;5.58;100.00;99562.78;4372126;32;20100;-71
2022/03/16 08:12:30;;;;;;;52.15;24.48;;;;;;;5.95;100.00;99606.00;4371359;32;20048;-70
2022/03/16 08:14:56;;;;;;;51.55;22.45;;;;;;;6.04;100.00;99614.66;4376311;32;20020;-71
2022/03/16 08:17:23;;;;;;;49.90;23.33;;;;;;;5.93;100.00;99580.50;4376396;32;20361;-70
2022/03/16 08:19:49;;;;;;;34.13;18.67;;;;;;;6.33;100.00;99618.78;4362576;32;20036;-69
2022/03/16 08:22:36;;;;;;;49.30;24.75;;;;;;;6.38;100.00;99636.84;4375627;32;20059;-69
2022/03/16 08:25:05;;;;;;;43.70;22.55;;;;;;;6.33;100.00;99628.63;4362263;32;20348;-72
2022/03/16 08:27:33;;;;;;;17.60;9.50;;;;;;;6.45;100.00;99626.97;4376032;32;20101;-72
2022/03/16 08:29:59;;;;;;;53.08;27.73;;;;;;;6.39;100.00;99633.16;4375991;32;20060;-73
2022/03/16 08:32:26;;;;;;;49.03;22.62;;;;;;;6.44;100.00;99625.31;4375192;32;20040;-72
2022/03/16 08:34:53;;;;;;;44.85;22.42;;;;;;;6.58;100.00;99625.31;4375538;32;20076;-73
2022/03/16 08:37:20;;;;;;;48.97;23.98;;;;;;;6.41;100.00;99580.25;4375897;32;20069;-73
2022/03/16 08:39:48;;;;;;;32.42;14.07;;;;;;;6.48;100.00;99566.91;4375879;32;20039;-73
2022/03/16 08:42:15;;;;;;;17.12;11.55;;;;;;;6.79;100.00;99621.56;4372374;32;20051;-73
2022/03/16 08:44:42;;;;;;;42.97;19.65;;;;;;;6.57;100.00;99572.84;4373131;32;20180;-73
2022/03/16 08:47:18;;;;;;;47.83;23.58;;;;;;;6.80;100.00;99618.69;4360477;32;20093;-75
2022/03/16 08:49:50;;;;;;;63.25;31.33;;;;;;;6.93;100.00;99619.69;4346585;32;20349;-74
2022/03/16 08:52:17;;;;;;;57.30;28.08;;;;;;;6.69;100.00;99585.34;4365126;32;20171;-74
2022/03/16 08:54:44;;;;;;;64.37;24.02;;;;;;;7.17;100.00;99618.94;4375625;32;20041;-73
2022/03/16 08:57:11;;;;;;;48.65;27.15;;;;;;;7.22;100.00;99613.78;4354558;32;20050;-72
2022/03/16 08:59:39;;;;;;;51.55;23.85;;;;;;;7.43;100.00;99633.25;4358953;32;20378;-71
2022/03/16 09:02:07;;;;;;;50.72;23.45;;;;;;;7.52;100.00;99615.88;4366750;32;20058;-72
2022/03/16 09:04:36;;;;;;;49.58;25.35;;;;;;;7.35;100.00;99582.59;4373753;32;20073;-73
2022/03/16 09:07:04;;;;;;;49.30;26.25;;;;;;;7.38;100.00;99584.84;4370782;32;20051;-73
2022/03/16 09:09:31;;;;;;;57.90;26.77;;;;;;;7.71;100.00;99624.03;4373406;32;20425;-72
2022/03/16 09:11:58;;;;;;;33.08;16.42;;;;;;;7.76;100.00;99633.06;4371733;32;20671;-73
2022/03/16 09:14:25;;;;;;;50.50;25.17;;;;;;;7.41;100.00;99581.75;4370803;32;20212;-73
2022/03/16 09:16:52;;;;;;;56.25;27.65;;;;;;;7.42;100.00;99583.41;4363087;32;20044;-72
2022/03/16 09:19:21;;;;;;;30.75;14.68;;;;;;;7.72;100.00;99636.38;4358973;32;20183;-72
2022/03/16 09:21:50;;;;;;;51.03;27.25;;;;;;;7.51;100.00;99614.22;4357890;32;20081;-72
2022/03/16 09:24:19;;;;;;;54.33;27.95;;;;;;;7.47;100.00;99623.75;4366403;32;20024;-73
2022/03/16 09:26:46;;;;;;;58.58;26.60;;;;;;;7.64;100.00;99640.97;4358846;32;20039;-73
2022/03/16 09:29:13;;;;;;;50.47;25.35;;;;;;;7.54;100.00;99624.53;4367762;32;20063;-72
2022/03/16 09:31:43;;;;;;;45.88;22.65;;;;;;;7.72;100.00;99652.47;4367113;32;20065;-72
2022/03/16 09:34:09;;;;;;;57.58;26.08;;;;;;;7.45;100.00;99599.00;4369503;32;20036;-72
2022/03/16 09:36:37;;;;;;;47.62;27.05;;;;;;;7.91;100.00;99650.69;4375190;32;20039;-72
2022/03/16 09:39:04;;;;;;;;;;;;;;;7.84;100.00;99657.97;4360044;32;20047;-72
2022/03/16 09:41:30;;;;;;;;;;;;;;;7.85;100.00;99646.19;4492828;27;19994;-73
2022/03/16 09:43:57;;;;;;;47.38;21.45;;;;;;;7.91;100.00;99656.88;4352624;32;19935;-72
2022/03/16 09:46:35;;;;;;;57.80;26.98;;;;;;;8.03;100.00;99665.06;4354879;32;20043;-72
2022/03/16 09:49:04;;;;;;;59.28;29.25;;;;;;;7.99;100.00;99645.91;4346077;32;20181;-73
2022/03/16 09:51:35;;;;;;;53.05;26.27;;;;;;;8.10;100.00;99656.94;4353181;32;20388;-72
2022/03/16 09:54:03;;;;;;;61.58;26.90;;;;;;;8.14;100.00;99660.84;4355569;32;20345;-72
2022/03/16 09:56:30;;;;;;;57.00;24.35;;;;;;;8.33;100.00;99665.22;4340508;33;20023;-72
2022/03/16 09:58:57;;;;;;;63.40;30.05;;;;;;;8.08;100.00;99597.34;4358875;32;20047;-72
2022/03/16 10:01:23;;;;;;;18.35;11.40;;;;;;;8.51;100.00;99679.78;4368095;32;20081;-74
2022/03/16 10:03:51;;;;;;;52.47;24.67;;;;;;;8.50;100.00;99664.69;4370233;32;20051;-71
2022/03/16 10:06:22;;;;;;;64.40;29.45;;;;;;;8.57;100.00;99681.56;4358806;32;20052;-71
2022/03/16 10:13:13;;;;;;;40.10;20.27;;;;;;;8.79;100.00;99678.47;4366872;32;20031;-72
2022/03/16 10:14:20;;;;;;;;;;;;;;;8.76;100.00;99695.00;4355541;32;19939;-71
2022/03/16 10:19:48;;;;;;;;;;;;;;;8.69;100.00;99689.72;4353296;33;20308;-72
2022/03/16 10:22:25;;;;;;;;;;;;;;;8.71;100.00;99699.19;4353592;32;20256;-72
2022/03/16 10:25:02;;;;;;;;;;;;;;;8.77;100.00;99691.31;4355157;32;19956;-69
2022/03/16 10:27:29;;;;;;;;;;;;;;;8.80;100.00;99696.22;4354122;32;19945;-70
2022/03/16 10:29:56;;;;;;;;;;;;;;;8.89;100.00;99705.66;4355496;32;20046;-69
2022/03/16 10:32:23;;;;;;;;;;;;;;;8.91;100.00;99708.91;4352954;32;19953;-72
2022/03/16 10:34:50;;;;;;;;;;;;;;;9.13;100.00;99712.00;4354935;32;20077;-70
2022/03/16 10:37:20;;;;;;;;;;;;;;;9.25;100.00;99725.50;4354559;33;19980;-70
2022/03/16 10:39:48;;;;;;;;;;;;;;;9.29;100.00;99713.28;4353607;33;19998;-72
2022/03/16 10:48:25;;;;;;;;;;;;;;;9.77;100.00;99725.91;4355841;32;19968;-70
2022/03/16 10:50:57;;;;;;;;;;;;;;;10.01;100.00;99728.69;4340822;33;19939;-71
2022/03/16 10:53:28;;;;;;;;;;;;;;;10.07;100.00;99730.47;4346659;33;20289;-70
2022/03/16 10:55:55;;;;;;;;;;;;;;;10.11;100.00;99726.25;4349753;33;19953;-70
2022/03/16 10:58:26;;;;;;;;;;;;;;;10.20;100.00;99736.72;4342356;32;20053;-70
2022/03/16 11:00:53;;;;;;;;;;;;;;;9.82;100.00;99736.78;4354777;32;19945;-70
2022/03/16 11:03:22;;;;;;;;;;;;;;;9.90;100.00;99740.22;4357548;32;19974;-70
2022/03/16 11:05:49;;;;;;;;;;;;;;;10.12;100.00;99735.97;4366035;32;19951;-70
2022/03/16 11:08:15;;;;;;;;;;;;;;;10.00;100.00;99737.81;4358796;32;20268;-70
2022/03/16 11:10:42;;;;;;;;;;;;;;;9.89;100.00;99757.41;4359334;32;19949;-70
2022/03/16 11:15:57;;;;;;;;;;;;;;;10.15;100.00;99748.97;4355392;32;19953;-70
2022/03/16 11:18:24;;;;;;;;;;;;;;;10.61;100.00;99753.91;4361917;32;19931;-70
2022/03/16 11:20:51;;;;;;;;;;;;;;;10.71;99.28;99754.16;4338443;33;20264;-70
2022/03/16 11:29:21;;;;;;;49.05;24.40;;;;;;;11.09;94.93;99744.81;4349512;32;20362;-70
2022/03/16 11:31:48;;;;;;;40.88;23.60;;;;;;;10.92;92.29;99711.53;4352832;32;20088;-70
2022/03/16 11:34:24;;;;;;;46.65;24.98;;;;;;;11.46;89.53;99760.69;4358460;32;20350;-70
2022/03/16 11:37:01;;;;;;;44.92;26.77;;;;;;;11.56;87.95;99733.91;4339898;33;20066;-69
2022/03/16 11:39:47;;;;;;;50.28;24.30;;;;;;;11.67;85.88;99739.53;4343023;32;20438;-70
2022/03/16 11:42:18;;;;;;;47.70;24.77;;;;;;;11.79;87.89;99769.97;4350928;33;20134;-70
2022/03/16 11:44:45;;;;;;;47.08;22.00;;;;;;;12.01;84.63;99723.47;4341593;33;20036;-70
2022/03/16 11:47:13;;;;;;;53.60;28.58;;;;;;;12.14;80.80;99771.75;4362246;32;20311;-70